sensor_id;sensor_type;location;lat;lon;timestamp;P1;durP1;ratioP1;P2;durP2;ratioP2
66472;SDS011;53291;51.680;8.344;2022-11-20T00:01:17;13.55;;;6.65;;
66472;SDS011;53291;51.680;8.344;2022-11-20T00:03:44;19.38;;;6.82;;
66472;SDS011;53291;51.680;8.344;2022-11-20T00:06:11;16.25;;;6.93;;
66472;SDS011;53291;51.680;8.344;2022-11-20T00:08:38;18.95;;;7.13;;
66472;SDS011;53291;51.680;8.344;2022-11-20T00:13:30;16.10;;;7.80;;
66472;SDS011;53291;51.680;8.344;2022-11-20T00:15:57;18.70;;;7.68;;
66472;SDS011;53291;51.680;8.344;2022-11-20T00:18:23;16.85;;;6.90;;
66472;SDS011;53291;51.680;8.344;2022-11-20T00:20:48;15.63;;;6.88;;
66472;SDS011;53291;51.680;8.344;2022-11-20T00:23:14;16.03;;;7.53;;
66472;SDS011;53291;51.680;8.344;2022-11-20T00:25:39;13.20;;;6.57;;
66472;SDS011;53291;51.680;8.344;2022-11-20T00:28:04;15.93;;;6.60;;
66472;SDS011;53291;51.680;8.344;2022-11-20T00:30:30;17.53;;;6.50;;
66472;SDS011;53291;51.680;8.344;2022-11-20T00:32:56;17.08;;;8.13;;
66472;SDS011;53291;51.680;8.344;2022-11-20T00:35:22;14.20;;;6.32;;
66472;SDS011;53291;51.680;8.344;2022-11-20T00:37:47;15.30;;;7.97;;
66472;SDS011;53291;51.680;8.344;2022-11-20T00:40:13;13.63;;;7.93;;
66472;SDS011;53291;51.680;8.344;2022-11-20T00:42:38;14.75;;;6.43;;
66472;SDS011;53291;51.680;8.344;2022-11-20T00:45:03;14.87;;;6.40;;
66472;SDS011;53291;51.680;8.344;2022-11-20T00:47:29;14.35;;;6.03;;
66472;SDS011;53291;51.680;8.344;2022-11-20T00:49:55;16.23;;;6.47;;
66472;SDS011;53291;51.680;8.344;2022-11-20T00:52:20;15.77;;;6.57;;
66472;SDS011;53291;51.680;8.344;2022-11-20T00:54:45;13.70;;;7.43;;
66472;SDS011;53291;51.680;8.344;2022-11-20T00:57:11;18.00;;;7.43;;
66472;SDS011;53291;51.680;8.344;2022-11-20T00:59:36;15.47;;;5.90;;
66472;SDS011;53291;51.680;8.344;2022-11-20T01:02:01;13.37;;;5.90;;
66472;SDS011;53291;51.680;8.344;2022-11-20T01:04:27;14.98;;;6.40;;
66472;SDS011;53291;51.680;8.344;2022-11-20T01:06:52;13.77;;;5.90;;
66472;SDS011;53291;51.680;8.344;2022-11-20T01:09:17;15.53;;;6.60;;
66472;SDS011;53291;51.680;8.344;2022-11-20T01:11:43;15.27;;;6.10;;
66472;SDS011;53291;51.680;8.344;2022-11-20T01:14:10;14.15;;;6.13;;
66472;SDS011;53291;51.680;8.344;2022-11-20T01:16:41;13.55;;;5.75;;
66472;SDS011;53291;51.680;8.344;2022-11-20T01:19:12;15.32;;;6.28;;
66472;SDS011;53291;51.680;8.344;2022-11-20T01:21:40;13.45;;;5.63;;
66472;SDS011;53291;51.680;8.344;2022-11-20T01:24:08;16.73;;;7.47;;
66472;SDS011;53291;51.680;8.344;2022-11-20T01:26:36;15.73;;;6.53;;
66472;SDS011;53291;51.680;8.344;2022-11-20T01:29:04;16.52;;;6.90;;
66472;SDS011;53291;51.680;8.344;2022-11-20T01:31:31;15.98;;;7.28;;
66472;SDS011;53291;51.680;8.344;2022-11-20T01:33:58;13.32;;;6.13;;
66472;SDS011;53291;51.680;8.344;2022-11-20T01:36:26;17.75;;;7.35;;
66472;SDS011;53291;51.680;8.344;2022-11-20T01:38:53;16.80;;;6.43;;
66472;SDS011;53291;51.680;8.344;2022-11-20T01:41:21;12.50;;;5.50;;
66472;SDS011;53291;51.680;8.344;2022-11-20T01:44:05;15.68;;;6.20;;
66472;SDS011;53291;51.680;8.344;2022-11-20T01:46:32;17.20;;;6.80;;
66472;SDS011;53291;51.680;8.344;2022-11-20T01:49:04;14.25;;;7.10;;
66472;SDS011;53291;51.680;8.344;2022-11-20T01:51:38;13.15;;;6.57;;
66472;SDS011;53291;51.680;8.344;2022-11-20T01:54:08;13.88;;;6.50;;
66472;SDS011;53291;51.680;8.344;2022-11-20T01:56:40;16.90;;;7.07;;
66472;SDS011;53291;51.680;8.344;2022-11-20T01:59:09;15.05;;;7.05;;
66472;SDS011;53291;51.680;8.344;2022-11-20T02:01:38;15.20;;;7.03;;
66472;SDS011;53291;51.680;8.344;2022-11-20T02:04:04;16.63;;;6.88;;
66472;SDS011;53291;51.680;8.344;2022-11-20T02:06:44;15.00;;;7.47;;
66472;SDS011;53291;51.680;8.344;2022-11-20T02:09:14;16.90;;;6.82;;
66472;SDS011;53291;51.680;8.344;2022-11-20T02:11:40;19.98;;;7.05;;
66472;SDS011;53291;51.680;8.344;2022-11-20T02:14:06;15.95;;;7.20;;
66472;SDS011;53291;51.680;8.344;2022-11-20T02:16:36;18.83;;;6.82;;
66472;SDS011;53291;51.680;8.344;2022-11-20T02:19:06;16.42;;;7.05;;
66472;SDS011;53291;51.680;8.344;2022-11-20T02:24:14;16.33;;;6.55;;
66472;SDS011;53291;51.680;8.344;2022-11-20T02:26:46;15.18;;;6.20;;
66472;SDS011;53291;51.680;8.344;2022-11-20T02:32:18;16.35;;;6.32;;
66472;SDS011;53291;51.680;8.344;2022-11-20T02:34:45;16.63;;;6.07;;
66472;SDS011;53291;51.680;8.344;2022-11-20T02:37:10;16.42;;;6.22;;
66472;SDS011;53291;51.680;8.344;2022-11-20T02:39:36;15.52;;;6.05;;
66472;SDS011;53291;51.680;8.344;2022-11-20T02:42:01;15.68;;;6.60;;
66472;SDS011;53291;51.680;8.344;2022-11-20T02:44:27;15.40;;;6.78;;
66472;SDS011;53291;51.680;8.344;2022-11-20T02:46:53;15.32;;;6.60;;
66472;SDS011;53291;51.680;8.344;2022-11-20T02:49:18;15.40;;;6.03;;
66472;SDS011;53291;51.680;8.344;2022-11-20T02:51:43;15.73;;;7.30;;
66472;SDS011;53291;51.680;8.344;2022-11-20T02:54:09;13.95;;;6.72;;
66472;SDS011;53291;51.680;8.344;2022-11-20T02:56:34;16.60;;;7.37;;
66472;SDS011;53291;51.680;8.344;2022-11-20T02:59:03;14.82;;;6.38;;
66472;SDS011;53291;51.680;8.344;2022-11-20T03:01:29;17.55;;;7.10;;
66472;SDS011;53291;51.680;8.344;2022-11-20T03:03:54;15.88;;;6.57;;
66472;SDS011;53291;51.680;8.344;2022-11-20T03:06:21;12.80;;;6.22;;
66472;SDS011;53291;51.680;8.344;2022-11-20T03:08:46;12.40;;;6.38;;
66472;SDS011;53291;51.680;8.344;2022-11-20T03:11:12;15.25;;;8.18;;
66472;SDS011;53291;51.680;8.344;2022-11-20T03:13:37;14.87;;;6.33;;
66472;SDS011;53291;51.680;8.344;2022-11-20T03:16:06;18.63;;;7.43;;
66472;SDS011;53291;51.680;8.344;2022-11-20T03:18:33;15.07;;;6.63;;
66472;SDS011;53291;51.680;8.344;2022-11-20T03:20:58;13.48;;;5.75;;
66472;SDS011;53291;51.680;8.344;2022-11-20T03:23:24;13.20;;;6.68;;
66472;SDS011;53291;51.680;8.344;2022-11-20T03:25:49;11.40;;;4.60;;
66472;SDS011;53291;51.680;8.344;2022-11-20T03:28:15;10.23;;;5.37;;
66472;SDS011;53291;51.680;8.344;2022-11-20T03:30:40;12.80;;;5.33;;
66472;SDS011;53291;51.680;8.344;2022-11-20T03:33:05;13.63;;;5.10;;
66472;SDS011;53291;51.680;8.344;2022-11-20T03:35:31;11.57;;;4.97;;
66472;SDS011;53291;51.680;8.344;2022-11-20T03:37:57;12.27;;;5.27;;
66472;SDS011;53291;51.680;8.344;2022-11-20T03:40:22;14.35;;;6.00;;
66472;SDS011;53291;51.680;8.344;2022-11-20T03:42:47;14.57;;;5.67;;
66472;SDS011;53291;51.680;8.344;2022-11-20T03:45:13;12.30;;;5.57;;
66472;SDS011;53291;51.680;8.344;2022-11-20T03:47:40;11.85;;;4.82;;
66472;SDS011;53291;51.680;8.344;2022-11-20T03:50:06;12.93;;;5.47;;
66472;SDS011;53291;51.680;8.344;2022-11-20T03:52:32;12.02;;;5.32;;
66472;SDS011;53291;51.680;8.344;2022-11-20T03:54:58;11.23;;;5.10;;
66472;SDS011;53291;51.680;8.344;2022-11-20T03:57:23;11.40;;;5.00;;
66472;SDS011;53291;51.680;8.344;2022-11-20T03:59:48;12.80;;;5.28;;
66472;SDS011;53291;51.680;8.344;2022-11-20T04:02:14;12.20;;;5.37;;
66472;SDS011;53291;51.680;8.344;2022-11-20T04:04:39;10.97;;;4.67;;
66472;SDS011;53291;51.680;8.344;2022-11-20T04:07:04;13.40;;;4.87;;
66472;SDS011;53291;51.680;8.344;2022-11-20T04:09:29;13.80;;;6.47;;
66472;SDS011;53291;51.680;8.344;2022-11-20T04:11:55;12.53;;;4.90;;
66472;SDS011;53291;51.680;8.344;2022-11-20T04:14:20;11.83;;;6.03;;
66472;SDS011;53291;51.680;8.344;2022-11-20T04:16:45;10.85;;;3.75;;
66472;SDS011;53291;51.680;8.344;2022-11-20T04:19:12;46.03;;;14.40;;
66472;SDS011;53291;51.680;8.344;2022-11-20T04:21:39;26.23;;;9.65;;
66472;SDS011;53291;51.680;8.344;2022-11-20T04:24:05;20.27;;;8.00;;
66472;SDS011;53291;51.680;8.344;2022-11-20T04:26:31;16.33;;;6.22;;
66472;SDS011;53291;51.680;8.344;2022-11-20T04:28:57;14.73;;;5.88;;
66472;SDS011;53291;51.680;8.344;2022-11-20T04:31:25;12.82;;;5.38;;
66472;SDS011;53291;51.680;8.344;2022-11-20T04:33:53;14.40;;;5.32;;
66472;SDS011;53291;51.680;8.344;2022-11-20T04:36:19;10.93;;;3.78;;
66472;SDS011;53291;51.680;8.344;2022-11-20T04:38:45;9.77;;;4.05;;
66472;SDS011;53291;51.680;8.344;2022-11-20T04:41:13;10.52;;;4.50;;
66472;SDS011;53291;51.680;8.344;2022-11-20T04:43:40;10.23;;;3.78;;
66472;SDS011;53291;51.680;8.344;2022-11-20T04:46:06;10.35;;;3.83;;
66472;SDS011;53291;51.680;8.344;2022-11-20T04:48:31;11.95;;;4.25;;
66472;SDS011;53291;51.680;8.344;2022-11-20T04:50:57;10.27;;;3.87;;
66472;SDS011;53291;51.680;8.344;2022-11-20T04:53:22;10.13;;;3.78;;
66472;SDS011;53291;51.680;8.344;2022-11-20T04:55:48;12.25;;;4.25;;
66472;SDS011;53291;51.680;8.344;2022-11-20T04:58:14;12.20;;;5.72;;
66472;SDS011;53291;51.680;8.344;2022-11-20T05:00:40;7.80;;;3.45;;
66472;SDS011;53291;51.680;8.344;2022-11-20T05:03:06;10.27;;;3.80;;
66472;SDS011;53291;51.680;8.344;2022-11-20T05:05:33;8.13;;;2.90;;
66472;SDS011;53291;51.680;8.344;2022-11-20T05:07:59;8.93;;;4.00;;
66472;SDS011;53291;51.680;8.344;2022-11-20T05:10:24;9.40;;;3.15;;
66472;SDS011;53291;51.680;8.344;2022-11-20T05:12:50;11.07;;;3.88;;
66472;SDS011;53291;51.680;8.344;2022-11-20T05:15:16;11.27;;;4.07;;
66472;SDS011;53291;51.680;8.344;2022-11-20T05:17:41;9.90;;;3.43;;
66472;SDS011;53291;51.680;8.344;2022-11-20T05:20:12;9.65;;;4.20;;
66472;SDS011;53291;51.680;8.344;2022-11-20T05:22:37;12.30;;;3.97;;
66472;SDS011;53291;51.680;8.344;2022-11-20T05:25:02;11.43;;;5.17;;
66472;SDS011;53291;51.680;8.344;2022-11-20T05:27:28;9.00;;;3.60;;
66472;SDS011;53291;51.680;8.344;2022-11-20T05:29:53;10.87;;;4.03;;
66472;SDS011;53291;51.680;8.344;2022-11-20T05:32:18;11.67;;;3.70;;
66472;SDS011;53291;51.680;8.344;2022-11-20T05:34:44;10.30;;;4.17;;
66472;SDS011;53291;51.680;8.344;2022-11-20T05:37:09;11.03;;;5.57;;
66472;SDS011;53291;51.680;8.344;2022-11-20T05:39:34;12.07;;;4.43;;
66472;SDS011;53291;51.680;8.344;2022-11-20T05:42:00;13.07;;;4.73;;
66472;SDS011;53291;51.680;8.344;2022-11-20T05:44:43;12.40;;;5.00;;
66472;SDS011;53291;51.680;8.344;2022-11-20T05:47:09;11.57;;;3.73;;
66472;SDS011;53291;51.680;8.344;2022-11-20T05:49:34;12.27;;;4.57;;
66472;SDS011;53291;51.680;8.344;2022-11-20T05:51:59;10.20;;;4.93;;
66472;SDS011;53291;51.680;8.344;2022-11-20T05:54:25;10.43;;;4.97;;
66472;SDS011;53291;51.680;8.344;2022-11-20T05:56:50;10.20;;;3.67;;
66472;SDS011;53291;51.680;8.344;2022-11-20T05:59:15;11.53;;;4.33;;
66472;SDS011;53291;51.680;8.344;2022-11-20T06:01:40;11.87;;;4.67;;
66472;SDS011;53291;51.680;8.344;2022-11-20T06:04:06;11.32;;;3.88;;
66472;SDS011;53291;51.680;8.344;2022-11-20T06:06:31;11.20;;;4.77;;
66472;SDS011;53291;51.680;8.344;2022-11-20T06:08:57;12.37;;;4.57;;
66472;SDS011;53291;51.680;8.344;2022-11-20T06:11:23;12.10;;;4.07;;
66472;SDS011;53291;51.680;8.344;2022-11-20T06:13:49;11.40;;;6.13;;
66472;SDS011;53291;51.680;8.344;2022-11-20T06:16:15;10.00;;;4.00;;
66472;SDS011;53291;51.680;8.344;2022-11-20T06:18:43;12.52;;;5.10;;
66472;SDS011;53291;51.680;8.344;2022-11-20T06:21:12;13.80;;;6.07;;
66472;SDS011;53291;51.680;8.344;2022-11-20T06:23:39;13.00;;;4.15;;
66472;SDS011;53291;51.680;8.344;2022-11-20T06:26:12;13.23;;;4.10;;
66472;SDS011;53291;51.680;8.344;2022-11-20T06:28:40;9.63;;;3.75;;
66472;SDS011;53291;51.680;8.344;2022-11-20T06:31:09;12.17;;;4.53;;
66472;SDS011;53291;51.680;8.344;2022-11-20T06:33:36;10.10;;;3.92;;
66472;SDS011;53291;51.680;8.344;2022-11-20T06:36:02;9.93;;;3.97;;
66472;SDS011;53291;51.680;8.344;2022-11-20T06:38:28;11.55;;;4.13;;
66472;SDS011;53291;51.680;8.344;2022-11-20T06:40:54;10.65;;;4.00;;
66472;SDS011;53291;51.680;8.344;2022-11-20T06:43:20;12.00;;;4.10;;
66472;SDS011;53291;51.680;8.344;2022-11-20T06:45:51;9.77;;;3.30;;
66472;SDS011;53291;51.680;8.344;2022-11-20T06:48:17;12.82;;;4.38;;
66472;SDS011;53291;51.680;8.344;2022-11-20T06:50:43;11.17;;;3.90;;
66472;SDS011;53291;51.680;8.344;2022-11-20T06:53:08;10.47;;;3.60;;
66472;SDS011;53291;51.680;8.344;2022-11-20T06:55:33;11.20;;;4.10;;
66472;SDS011;53291;51.680;8.344;2022-11-20T06:57:59;9.57;;;3.53;;
66472;SDS011;53291;51.680;8.344;2022-11-20T07:00:24;8.95;;;3.45;;
66472;SDS011;53291;51.680;8.344;2022-11-20T07:02:49;8.85;;;3.10;;
66472;SDS011;53291;51.680;8.344;2022-11-20T07:05:15;7.82;;;2.60;;
66472;SDS011;53291;51.680;8.344;2022-11-20T07:07:40;8.80;;;3.40;;
66472;SDS011;53291;51.680;8.344;2022-11-20T07:10:06;8.63;;;2.90;;
66472;SDS011;53291;51.680;8.344;2022-11-20T07:12:32;10.90;;;4.88;;
66472;SDS011;53291;51.680;8.344;2022-11-20T07:14:57;11.33;;;3.77;;
66472;SDS011;53291;51.680;8.344;2022-11-20T07:17:22;10.63;;;3.30;;
66472;SDS011;53291;51.680;8.344;2022-11-20T07:19:48;10.07;;;3.30;;
66472;SDS011;53291;51.680;8.344;2022-11-20T07:22:13;11.03;;;4.43;;
66472;SDS011;53291;51.680;8.344;2022-11-20T07:24:38;12.63;;;5.27;;
66472;SDS011;53291;51.680;8.344;2022-11-20T07:27:04;13.50;;;7.07;;
66472;SDS011;53291;51.680;8.344;2022-11-20T07:29:29;12.57;;;5.40;;
66472;SDS011;53291;51.680;8.344;2022-11-20T07:31:55;9.07;;;3.33;;
66472;SDS011;53291;51.680;8.344;2022-11-20T07:34:21;9.93;;;4.35;;
66472;SDS011;53291;51.680;8.344;2022-11-20T07:36:46;9.18;;;3.92;;
66472;SDS011;53291;51.680;8.344;2022-11-20T07:39:12;13.07;;;4.87;;
66472;SDS011;53291;51.680;8.344;2022-11-20T07:41:37;9.07;;;4.83;;
66472;SDS011;53291;51.680;8.344;2022-11-20T07:44:02;11.17;;;4.90;;
66472;SDS011;53291;51.680;8.344;2022-11-20T07:46:28;11.85;;;4.05;;
66472;SDS011;53291;51.680;8.344;2022-11-20T07:48:53;10.05;;;4.85;;
66472;SDS011;53291;51.680;8.344;2022-11-20T07:51:19;11.67;;;5.40;;
66472;SDS011;53291;51.680;8.344;2022-11-20T07:53:44;13.93;;;5.73;;
66472;SDS011;53291;51.680;8.344;2022-11-20T07:56:09;11.90;;;6.20;;
66472;SDS011;53291;51.680;8.344;2022-11-20T07:58:35;11.13;;;5.07;;
66472;SDS011;53291;51.680;8.344;2022-11-20T08:01:04;11.15;;;5.47;;
66472;SDS011;53291;51.680;8.344;2022-11-20T08:03:31;11.55;;;5.20;;
66472;SDS011;53291;51.680;8.344;2022-11-20T08:06:00;11.40;;;5.53;;
66472;SDS011;53291;51.680;8.344;2022-11-20T08:08:26;10.63;;;3.97;;
66472;SDS011;53291;51.680;8.344;2022-11-20T08:10:51;8.88;;;3.97;;
66472;SDS011;53291;51.680;8.344;2022-11-20T08:13:17;9.73;;;3.90;;
66472;SDS011;53291;51.680;8.344;2022-11-20T08:16:00;10.25;;;4.75;;
66472;SDS011;53291;51.680;8.344;2022-11-20T08:18:26;11.43;;;4.32;;
66472;SDS011;53291;51.680;8.344;2022-11-20T08:20:51;9.40;;;4.03;;
66472;SDS011;53291;51.680;8.344;2022-11-20T08:23:17;9.35;;;4.95;;
66472;SDS011;53291;51.680;8.344;2022-11-20T08:25:42;9.83;;;4.90;;
66472;SDS011;53291;51.680;8.344;2022-11-20T08:28:08;11.73;;;4.47;;
66472;SDS011;53291;51.680;8.344;2022-11-20T08:30:35;11.18;;;5.43;;
66472;SDS011;53291;51.680;8.344;2022-11-20T08:33:08;9.45;;;4.45;;
66472;SDS011;53291;51.680;8.344;2022-11-20T08:35:34;9.65;;;4.97;;
66472;SDS011;53291;51.680;8.344;2022-11-20T08:38:06;10.82;;;4.93;;
66472;SDS011;53291;51.680;8.344;2022-11-20T08:40:31;11.68;;;5.00;;
66472;SDS011;53291;51.680;8.344;2022-11-20T08:42:57;11.35;;;5.43;;
66472;SDS011;53291;51.680;8.344;2022-11-20T08:45:23;15.90;;;7.73;;
66472;SDS011;53291;51.680;8.344;2022-11-20T08:47:48;10.07;;;5.07;;
66472;SDS011;53291;51.680;8.344;2022-11-20T08:50:14;12.82;;;6.00;;
66472;SDS011;53291;51.680;8.344;2022-11-20T08:52:41;10.48;;;4.28;;
66472;SDS011;53291;51.680;8.344;2022-11-20T08:55:06;8.30;;;3.70;;
66472;SDS011;53291;51.680;8.344;2022-11-20T08:57:33;10.30;;;5.80;;
66472;SDS011;53291;51.680;8.344;2022-11-20T08:59:59;10.73;;;4.93;;
66472;SDS011;53291;51.680;8.344;2022-11-20T09:02:25;10.43;;;4.82;;
66472;SDS011;53291;51.680;8.344;2022-11-20T09:04:50;11.50;;;6.03;;
66472;SDS011;53291;51.680;8.344;2022-11-20T09:07:15;10.03;;;4.30;;
66472;SDS011;53291;51.680;8.344;2022-11-20T09:09:41;9.10;;;4.40;;
66472;SDS011;53291;51.680;8.344;2022-11-20T09:12:06;10.10;;;4.10;;
66472;SDS011;53291;51.680;8.344;2022-11-20T09:14:31;8.87;;;4.40;;
66472;SDS011;53291;51.680;8.344;2022-11-20T09:16:57;9.60;;;4.18;;
66472;SDS011;53291;51.680;8.344;2022-11-20T09:19:23;10.98;;;5.18;;
66472;SDS011;53291;51.680;8.344;2022-11-20T09:21:49;9.98;;;4.63;;
66472;SDS011;53291;51.680;8.344;2022-11-20T09:24:14;10.57;;;5.70;;
66472;SDS011;53291;51.680;8.344;2022-11-20T09:26:40;10.83;;;4.87;;
66472;SDS011;53291;51.680;8.344;2022-11-20T09:29:05;10.50;;;4.60;;
66472;SDS011;53291;51.680;8.344;2022-11-20T09:31:31;11.00;;;4.40;;
66472;SDS011;53291;51.680;8.344;2022-11-20T09:33:56;10.45;;;4.15;;
66472;SDS011;53291;51.680;8.344;2022-11-20T09:36:22;10.80;;;4.38;;
66472;SDS011;53291;51.680;8.344;2022-11-20T09:38:47;9.45;;;4.47;;
66472;SDS011;53291;51.680;8.344;2022-11-20T09:44:15;9.43;;;4.05;;
66472;SDS011;53291;51.680;8.344;2022-11-20T09:47:08;8.15;;;3.70;;
66472;SDS011;53291;51.680;8.344;2022-11-20T09:54:51;10.27;;;4.15;;
66472;SDS011;53291;51.680;8.344;2022-11-20T09:57:19;9.38;;;3.78;;
66472;SDS011;53291;51.680;8.344;2022-11-20T10:04:45;8.95;;;3.42;;
66472;SDS011;53291;51.680;8.344;2022-11-20T10:07:18;9.02;;;3.70;;
66472;SDS011;53291;51.680;8.344;2022-11-20T10:09:52;8.52;;;3.67;;
66472;SDS011;53291;51.680;8.344;2022-11-20T10:18:00;9.20;;;4.22;;
66472;SDS011;53291;51.680;8.344;2022-11-20T10:21:08;8.75;;;3.97;;
66472;SDS011;53291;51.680;8.344;2022-11-20T10:23:49;10.85;;;4.10;;
66472;SDS011;53291;51.680;8.344;2022-11-20T10:26:22;9.60;;;5.28;;
66472;SDS011;53291;51.680;8.344;2022-11-20T10:29:01;8.98;;;4.55;;
66472;SDS011;53291;51.680;8.344;2022-11-20T10:31:36;8.90;;;4.45;;
66472;SDS011;53291;51.680;8.344;2022-11-20T10:34:06;10.32;;;5.07;;
66472;SDS011;53291;51.680;8.344;2022-11-20T10:36:54;9.98;;;4.63;;
66472;SDS011;53291;51.680;8.344;2022-11-20T10:41:56;10.48;;;4.97;;
66472;SDS011;53291;51.680;8.344;2022-11-20T10:44:26;12.68;;;5.93;;
66472;SDS011;53291;51.680;8.344;2022-11-20T10:47:16;12.35;;;6.05;;
66472;SDS011;53291;51.680;8.344;2022-11-20T10:49:46;12.32;;;6.25;;
66472;SDS011;53291;51.680;8.344;2022-11-20T10:52:21;13.27;;;6.28;;
66472;SDS011;53291;51.680;8.344;2022-11-20T11:00:40;13.32;;;5.82;;
66472;SDS011;53291;51.680;8.344;2022-11-20T11:08:35;13.68;;;6.20;;
66472;SDS011;53291;51.680;8.344;2022-11-20T11:11:09;13.18;;;6.95;;
66472;SDS011;53291;51.680;8.344;2022-11-20T11:13:45;14.50;;;6.82;;
66472;SDS011;53291;51.680;8.344;2022-11-20T11:16:21;11.75;;;6.22;;
66472;SDS011;53291;51.680;8.344;2022-11-20T11:18:51;12.48;;;6.60;;
66472;SDS011;53291;51.680;8.344;2022-11-20T11:21:25;13.32;;;6.75;;
66472;SDS011;53291;51.680;8.344;2022-11-20T11:24:02;13.25;;;7.00;;
66472;SDS011;53291;51.680;8.344;2022-11-20T11:26:28;10.90;;;5.95;;
66472;SDS011;53291;51.680;8.344;2022-11-20T11:28:55;13.38;;;6.55;;
66472;SDS011;53291;51.680;8.344;2022-11-20T11:31:22;12.30;;;7.88;;
66472;SDS011;53291;51.680;8.344;2022-11-20T11:33:48;13.02;;;7.82;;
66472;SDS011;53291;51.680;8.344;2022-11-20T11:36:21;13.13;;;6.93;;
66472;SDS011;53291;51.680;8.344;2022-11-20T11:38:50;14.02;;;7.18;;
66472;SDS011;53291;51.680;8.344;2022-11-20T11:41:20;15.50;;;7.05;;
66472;SDS011;53291;51.680;8.344;2022-11-20T11:43:55;14.60;;;7.70;;
66472;SDS011;53291;51.680;8.344;2022-11-20T11:46:44;14.73;;;8.32;;
66472;SDS011;53291;51.680;8.344;2022-11-20T11:49:18;14.70;;;7.72;;
66472;SDS011;53291;51.680;8.344;2022-11-20T11:51:53;14.63;;;7.35;;
66472;SDS011;53291;51.680;8.344;2022-11-20T11:54:32;15.82;;;8.15;;
66472;SDS011;53291;51.680;8.344;2022-11-20T11:59:38;16.58;;;7.90;;
66472;SDS011;53291;51.680;8.344;2022-11-20T12:02:15;14.88;;;7.75;;
66472;SDS011;53291;51.680;8.344;2022-11-20T12:05:08;13.27;;;6.47;;
66472;SDS011;53291;51.680;8.344;2022-11-20T12:07:39;14.82;;;7.63;;
66472;SDS011;53291;51.680;8.344;2022-11-20T12:13:11;14.77;;;7.53;;
66472;SDS011;53291;51.680;8.344;2022-11-20T12:15:46;13.35;;;7.45;;
66472;SDS011;53291;51.680;8.344;2022-11-20T12:18:19;13.10;;;6.75;;
66472;SDS011;53291;51.680;8.344;2022-11-20T12:26:50;12.23;;;6.07;;
66472;SDS011;53291;51.680;8.344;2022-11-20T12:32:27;10.65;;;5.28;;
66472;SDS011;53291;51.680;8.344;2022-11-20T12:37:53;13.35;;;6.63;;
66472;SDS011;53291;51.680;8.344;2022-11-20T12:43:22;11.95;;;6.35;;
66472;SDS011;53291;51.680;8.344;2022-11-20T12:51:51;12.45;;;5.82;;
66472;SDS011;53291;51.680;8.344;2022-11-20T13:00:10;8.70;;;4.38;;
66472;SDS011;53291;51.680;8.344;2022-11-20T13:08:18;9.35;;;4.80;;
66472;SDS011;53291;51.680;8.344;2022-11-20T13:13:54;11.90;;;6.63;;
66472;SDS011;53291;51.680;8.344;2022-11-20T13:19:02;11.07;;;6.63;;
66472;SDS011;53291;51.680;8.344;2022-11-20T13:24:05;13.32;;;5.80;;
66472;SDS011;53291;51.680;8.344;2022-11-20T13:26:32;10.63;;;5.32;;
66472;SDS011;53291;51.680;8.344;2022-11-20T13:29:17;12.27;;;6.47;;
66472;SDS011;53291;51.680;8.344;2022-11-20T13:31:44;11.80;;;5.72;;
66472;SDS011;53291;51.680;8.344;2022-11-20T13:34:12;12.82;;;6.03;;
66472;SDS011;53291;51.680;8.344;2022-11-20T13:36:51;10.13;;;5.13;;
66472;SDS011;53291;51.680;8.344;2022-11-20T13:39:28;14.25;;;6.70;;
66472;SDS011;53291;51.680;8.344;2022-11-20T13:42:02;12.73;;;6.28;;
66472;SDS011;53291;51.680;8.344;2022-11-20T13:44:51;12.70;;;6.65;;
66472;SDS011;53291;51.680;8.344;2022-11-20T13:47:26;13.65;;;6.88;;
66472;SDS011;53291;51.680;8.344;2022-11-20T13:49:52;11.82;;;7.53;;
66472;SDS011;53291;51.680;8.344;2022-11-20T14:00:44;14.93;;;5.68;;
66472;SDS011;53291;51.680;8.344;2022-11-20T14:03:20;13.95;;;6.32;;
66472;SDS011;53291;51.680;8.344;2022-11-20T14:05:59;13.25;;;6.13;;
66472;SDS011;53291;51.680;8.344;2022-11-20T14:08:37;13.85;;;6.07;;
66472;SDS011;53291;51.680;8.344;2022-11-20T14:11:14;11.90;;;6.20;;
66472;SDS011;53291;51.680;8.344;2022-11-20T14:16:28;12.65;;;5.78;;
66472;SDS011;53291;51.680;8.344;2022-11-20T14:18:55;12.02;;;6.03;;
66472;SDS011;53291;51.680;8.344;2022-11-20T14:21:26;13.75;;;6.03;;
66472;SDS011;53291;51.680;8.344;2022-11-20T14:23:54;13.02;;;5.85;;
66472;SDS011;53291;51.680;8.344;2022-11-20T14:26:43;12.13;;;5.80;;
66472;SDS011;53291;51.680;8.344;2022-11-20T14:29:16;13.68;;;5.65;;
66472;SDS011;53291;51.680;8.344;2022-11-20T14:31:42;14.93;;;6.28;;
66472;SDS011;53291;51.680;8.344;2022-11-20T14:34:17;13.45;;;6.30;;
66472;SDS011;53291;51.680;8.344;2022-11-20T14:36:56;12.40;;;5.55;;
66472;SDS011;53291;51.680;8.344;2022-11-20T14:39:33;13.75;;;7.28;;
66472;SDS011;53291;51.680;8.344;2022-11-20T14:42:00;14.25;;;6.65;;
66472;SDS011;53291;51.680;8.344;2022-11-20T14:44:27;12.82;;;5.85;;
66472;SDS011;53291;51.680;8.344;2022-11-20T14:46:57;16.42;;;6.65;;
66472;SDS011;53291;51.680;8.344;2022-11-20T14:49:24;12.43;;;6.07;;
66472;SDS011;53291;51.680;8.344;2022-11-20T14:52:00;12.65;;;5.88;;
66472;SDS011;53291;51.680;8.344;2022-11-20T14:54:27;11.32;;;5.63;;
66472;SDS011;53291;51.680;8.344;2022-11-20T14:56:55;14.75;;;5.72;;
66472;SDS011;53291;51.680;8.344;2022-11-20T14:59:31;13.10;;;5.50;;
66472;SDS011;53291;51.680;8.344;2022-11-20T15:02:03;10.98;;;4.80;;
66472;SDS011;53291;51.680;8.344;2022-11-20T15:04:30;13.52;;;5.20;;
66472;SDS011;53291;51.680;8.344;2022-11-20T15:06:56;14.65;;;6.18;;
66472;SDS011;53291;51.680;8.344;2022-11-20T15:09:23;12.23;;;5.55;;
66472;SDS011;53291;51.680;8.344;2022-11-20T15:11:56;11.32;;;4.70;;
66472;SDS011;53291;51.680;8.344;2022-11-20T15:14:24;13.45;;;5.82;;
66472;SDS011;53291;51.680;8.344;2022-11-20T15:16:50;13.55;;;6.70;;
66472;SDS011;53291;51.680;8.344;2022-11-20T15:19:17;12.95;;;5.65;;
66472;SDS011;53291;51.680;8.344;2022-11-20T15:21:45;14.60;;;5.78;;
66472;SDS011;53291;51.680;8.344;2022-11-20T15:24:11;14.05;;;7.15;;
66472;SDS011;53291;51.680;8.344;2022-11-20T15:26:36;13.60;;;5.87;;
66472;SDS011;53291;51.680;8.344;2022-11-20T15:29:04;11.75;;;5.57;;
66472;SDS011;53291;51.680;8.344;2022-11-20T15:31:29;13.77;;;5.55;;
66472;SDS011;53291;51.680;8.344;2022-11-20T15:33:55;13.65;;;5.28;;
66472;SDS011;53291;51.680;8.344;2022-11-20T15:36:20;13.93;;;6.00;;
66472;SDS011;53291;51.680;8.344;2022-11-20T15:38:45;12.37;;;5.33;;
66472;SDS011;53291;51.680;8.344;2022-11-20T15:41:11;12.25;;;5.28;;
66472;SDS011;53291;51.680;8.344;2022-11-20T15:43:36;10.13;;;4.65;;
66472;SDS011;53291;51.680;8.344;2022-11-20T15:46:03;11.35;;;4.95;;
66472;SDS011;53291;51.680;8.344;2022-11-20T15:48:37;12.77;;;5.85;;
66472;SDS011;53291;51.680;8.344;2022-11-20T15:53:40;13.60;;;5.38;;
66472;SDS011;53291;51.680;8.344;2022-11-20T15:56:16;11.85;;;5.15;;
66472;SDS011;53291;51.680;8.344;2022-11-20T15:58:41;11.73;;;5.63;;
66472;SDS011;53291;51.680;8.344;2022-11-20T16:01:10;12.87;;;5.83;;
66472;SDS011;53291;51.680;8.344;2022-11-20T16:03:37;13.32;;;5.45;;
66472;SDS011;53291;51.680;8.344;2022-11-20T16:06:03;12.25;;;5.07;;
66472;SDS011;53291;51.680;8.344;2022-11-20T16:08:28;14.18;;;7.10;;
66472;SDS011;53291;51.680;8.344;2022-11-20T16:10:53;13.97;;;7.17;;
66472;SDS011;53291;51.680;8.344;2022-11-20T16:13:19;12.02;;;5.38;;
66472;SDS011;53291;51.680;8.344;2022-11-20T16:16:04;14.38;;;6.20;;
66472;SDS011;53291;51.680;8.344;2022-11-20T16:18:34;12.65;;;6.13;;
66472;SDS011;53291;51.680;8.344;2022-11-20T16:20:59;14.85;;;5.90;;
66472;SDS011;53291;51.680;8.344;2022-11-20T16:23:25;16.38;;;6.28;;